sensor_id;sensor_type;location;lat;lon;timestamp;P1;durP1;ratioP1;P2;durP2;ratioP2
20294;SDS011;10306;52.128;5.208;2023-07-31T00:02:20;2.03;;;1.80;;
20294;SDS011;10306;52.128;5.208;2023-07-31T00:04:46;3.03;;;2.20;;
20294;SDS011;10306;52.128;5.208;2023-07-31T00:07:12;1.77;;;1.67;;
20294;SDS011;10306;52.128;5.208;2023-07-31T00:09:38;2.00;;;1.90;;
20294;SDS011;10306;52.128;5.208;2023-07-31T00:12:04;2.43;;;1.97;;
20294;SDS011;10306;52.128;5.208;2023-07-31T00:14:30;3.20;;;2.67;;
20294;SDS011;10306;52.128;5.208;2023-07-31T00:16:56;5.63;;;3.10;;
20294;SDS011;10306;52.128;5.208;2023-07-31T00:19:22;4.83;;;3.40;;
20294;SDS011;10306;52.128;5.208;2023-07-31T00:21:48;7.70;;;3.57;;
20294;SDS011;10306;52.128;5.208;2023-07-31T00:24:14;8.57;;;4.27;;
20294;SDS011;10306;52.128;5.208;2023-07-31T00:26:40;13.57;;;4.80;;
20294;SDS011;10306;52.128;5.208;2023-07-31T00:29:06;19.80;;;5.07;;
20294;SDS011;10306;52.128;5.208;2023-07-31T00:31:32;15.10;;;5.80;;
20294;SDS011;10306;52.128;5.208;2023-07-31T00:33:58;14.83;;;6.80;;
20294;SDS011;10306;52.128;5.208;2023-07-31T00:36:24;19.07;;;6.83;;
20294;SDS011;10306;52.128;5.208;2023-07-31T00:38:50;24.27;;;7.63;;
20294;SDS011;10306;52.128;5.208;2023-07-31T00:41:16;29.53;;;8.27;;
20294;SDS011;10306;52.128;5.208;2023-07-31T00:43:42;24.87;;;7.57;;
20294;SDS011;10306;52.128;5.208;2023-07-31T00:46:08;23.03;;;8.27;;
20294;SDS011;10306;52.128;5.208;2023-07-31T00:48:34;23.30;;;8.43;;
20294;SDS011;10306;52.128;5.208;2023-07-31T00:51:01;26.97;;;7.90;;
20294;SDS011;10306;52.128;5.208;2023-07-31T00:53:27;26.57;;;7.93;;
20294;SDS011;10306;52.128;5.208;2023-07-31T00:55:53;29.60;;;8.37;;
20294;SDS011;10306;52.128;5.208;2023-07-31T00:58:19;25.50;;;8.70;;
20294;SDS011;10306;52.128;5.208;2023-07-31T01:00:45;25.83;;;7.97;;
20294;SDS011;10306;52.128;5.208;2023-07-31T01:03:11;14.10;;;5.50;;
20294;SDS011;10306;52.128;5.208;2023-07-31T01:08:38;7.87;;;4.67;;
20294;SDS011;10306;52.128;5.208;2023-07-31T01:11:19;11.60;;;4.70;;
20294;SDS011;10306;52.128;5.208;2023-07-31T01:13:47;10.13;;;4.63;;
20294;SDS011;10306;52.128;5.208;2023-07-31T01:16:13;9.50;;;4.07;;
20294;SDS011;10306;52.128;5.208;2023-07-31T01:18:39;10.20;;;4.30;;
20294;SDS011;10306;52.128;5.208;2023-07-31T01:21:16;9.77;;;4.17;;
20294;SDS011;10306;52.128;5.208;2023-07-31T01:26:29;14.00;;;5.60;;
20294;SDS011;10306;52.128;5.208;2023-07-31T01:29:03;15.47;;;5.90;;
20294;SDS011;10306;52.128;5.208;2023-07-31T01:31:30;23.93;;;6.87;;
20294;SDS011;10306;52.128;5.208;2023-07-31T01:33:58;19.27;;;7.67;;
20294;SDS011;10306;52.128;5.208;2023-07-31T01:36:25;18.40;;;7.70;;
20294;SDS011;10306;52.128;5.208;2023-07-31T01:38:51;22.70;;;7.90;;
20294;SDS011;10306;52.128;5.208;2023-07-31T01:41:17;21.77;;;7.33;;
20294;SDS011;10306;52.128;5.208;2023-07-31T01:43:44;26.23;;;8.13;;
20294;SDS011;10306;52.128;5.208;2023-07-31T01:46:10;21.60;;;7.67;;
20294;SDS011;10306;52.128;5.208;2023-07-31T01:48:36;23.77;;;7.97;;
20294;SDS011;10306;52.128;5.208;2023-07-31T01:51:02;25.00;;;7.80;;
20294;SDS011;10306;52.128;5.208;2023-07-31T01:53:29;27.07;;;7.77;;
20294;SDS011;10306;52.128;5.208;2023-07-31T01:55:55;31.50;;;9.23;;
20294;SDS011;10306;52.128;5.208;2023-07-31T01:58:21;23.63;;;8.50;;
20294;SDS011;10306;52.128;5.208;2023-07-31T02:00:47;18.30;;;7.23;;
20294;SDS011;10306;52.128;5.208;2023-07-31T02:03:13;21.33;;;6.93;;
20294;SDS011;10306;52.128;5.208;2023-07-31T02:05:45;16.87;;;6.77;;
20294;SDS011;10306;52.128;5.208;2023-07-31T02:08:11;19.10;;;6.70;;
20294;SDS011;10306;52.128;5.208;2023-07-31T02:10:37;21.83;;;7.10;;
20294;SDS011;10306;52.128;5.208;2023-07-31T02:13:03;22.80;;;6.30;;
20294;SDS011;10306;52.128;5.208;2023-07-31T02:15:29;18.47;;;6.33;;
20294;SDS011;10306;52.128;5.208;2023-07-31T02:17:56;19.73;;;6.73;;
20294;SDS011;10306;52.128;5.208;2023-07-31T02:20:22;23.13;;;7.10;;
20294;SDS011;10306;52.128;5.208;2023-07-31T02:22:48;22.67;;;6.60;;
20294;SDS011;10306;52.128;5.208;2023-07-31T02:25:14;19.87;;;7.17;;
20294;SDS011;10306;52.128;5.208;2023-07-31T02:27:40;21.53;;;6.43;;
20294;SDS011;10306;52.128;5.208;2023-07-31T02:30:06;21.00;;;6.97;;
20294;SDS011;10306;52.128;5.208;2023-07-31T02:32:32;17.70;;;6.47;;
20294;SDS011;10306;52.128;5.208;2023-07-31T02:34:58;13.13;;;6.57;;
20294;SDS011;10306;52.128;5.208;2023-07-31T02:37:24;18.93;;;6.43;;
20294;SDS011;10306;52.128;5.208;2023-07-31T02:39:51;16.87;;;6.53;;
20294;SDS011;10306;52.128;5.208;2023-07-31T02:42:17;16.53;;;6.63;;
20294;SDS011;10306;52.128;5.208;2023-07-31T02:44:43;17.37;;;6.83;;
20294;SDS011;10306;52.128;5.208;2023-07-31T02:47:09;13.37;;;6.53;;
20294;SDS011;10306;52.128;5.208;2023-07-31T02:49:34;21.50;;;6.30;;
20294;SDS011;10306;52.128;5.208;2023-07-31T02:52:00;20.70;;;7.00;;
20294;SDS011;10306;52.128;5.208;2023-07-31T02:54:26;21.17;;;7.03;;
20294;SDS011;10306;52.128;5.208;2023-07-31T02:56:52;28.33;;;7.30;;
20294;SDS011;10306;52.128;5.208;2023-07-31T02:59:19;19.50;;;7.57;;
20294;SDS011;10306;52.128;5.208;2023-07-31T03:01:45;29.47;;;7.67;;
20294;SDS011;10306;52.128;5.208;2023-07-31T03:04:11;19.50;;;8.50;;
20294;SDS011;10306;52.128;5.208;2023-07-31T03:06:37;24.80;;;7.97;;
20294;SDS011;10306;52.128;5.208;2023-07-31T03:09:03;26.60;;;7.77;;
20294;SDS011;10306;52.128;5.208;2023-07-31T03:11:29;31.93;;;8.50;;
20294;SDS011;10306;52.128;5.208;2023-07-31T03:13:55;21.27;;;8.80;;
20294;SDS011;10306;52.128;5.208;2023-07-31T03:16:21;26.97;;;8.53;;
20294;SDS011;10306;52.128;5.208;2023-07-31T03:18:47;25.20;;;7.67;;
20294;SDS011;10306;52.128;5.208;2023-07-31T03:21:14;20.23;;;8.33;;
20294;SDS011;10306;52.128;5.208;2023-07-31T03:23:40;34.80;;;8.10;;
20294;SDS011;10306;52.128;5.208;2023-07-31T03:26:08;30.00;;;8.37;;
20294;SDS011;10306;52.128;5.208;2023-07-31T03:28:34;26.53;;;7.97;;
20294;SDS011;10306;52.128;5.208;2023-07-31T03:31:00;31.90;;;8.40;;
20294;SDS011;10306;52.128;5.208;2023-07-31T03:33:26;18.10;;;8.00;;
20294;SDS011;10306;52.128;5.208;2023-07-31T03:35:52;22.40;;;8.00;;
20294;SDS011;10306;52.128;5.208;2023-07-31T03:38:18;20.97;;;7.70;;
20294;SDS011;10306;52.128;5.208;2023-07-31T03:40:44;24.53;;;8.37;;
20294;SDS011;10306;52.128;5.208;2023-07-31T03:43:11;16.43;;;6.93;;
20294;SDS011;10306;52.128;5.208;2023-07-31T03:45:37;22.73;;;7.83;;
20294;SDS011;10306;52.128;5.208;2023-07-31T03:48:03;19.20;;;6.70;;
20294;SDS011;10306;52.128;5.208;2023-07-31T03:50:29;21.10;;;8.53;;
20294;SDS011;10306;52.128;5.208;2023-07-31T03:52:55;21.07;;;7.07;;
20294;SDS011;10306;52.128;5.208;2023-07-31T03:55:21;20.50;;;7.17;;
20294;SDS011;10306;52.128;5.208;2023-07-31T03:57:47;15.77;;;7.47;;
20294;SDS011;10306;52.128;5.208;2023-07-31T04:00:13;15.73;;;6.93;;
20294;SDS011;10306;52.128;5.208;2023-07-31T04:02:39;22.70;;;7.80;;
20294;SDS011;10306;52.128;5.208;2023-07-31T04:05:05;24.87;;;7.50;;
20294;SDS011;10306;52.128;5.208;2023-07-31T04:07:32;23.03;;;7.47;;
20294;SDS011;10306;52.128;5.208;2023-07-31T04:09:57;19.70;;;7.33;;
20294;SDS011;10306;52.128;5.208;2023-07-31T04:12:23;17.03;;;7.40;;
20294;SDS011;10306;52.128;5.208;2023-07-31T04:14:49;18.27;;;6.97;;
20294;SDS011;10306;52.128;5.208;2023-07-31T04:17:17;17.63;;;7.47;;
20294;SDS011;10306;52.128;5.208;2023-07-31T04:19:43;18.50;;;7.80;;
20294;SDS011;10306;52.128;5.208;2023-07-31T04:22:09;20.73;;;7.70;;
20294;SDS011;10306;52.128;5.208;2023-07-31T04:24:35;14.63;;;7.73;;
20294;SDS011;10306;52.128;5.208;2023-07-31T04:27:01;23.10;;;8.30;;
20294;SDS011;10306;52.128;5.208;2023-07-31T04:29:27;20.50;;;7.83;;
20294;SDS011;10306;52.128;5.208;2023-07-31T04:31:53;13.50;;;6.47;;
20294;SDS011;10306;52.128;5.208;2023-07-31T04:34:19;16.27;;;6.67;;
20294;SDS011;10306;52.128;5.208;2023-07-31T04:36:45;15.70;;;7.23;;
20294;SDS011;10306;52.128;5.208;2023-07-31T04:39:11;12.17;;;6.60;;
20294;SDS011;10306;52.128;5.208;2023-07-31T04:41:37;16.07;;;7.00;;
20294;SDS011;10306;52.128;5.208;2023-07-31T04:44:03;13.03;;;7.07;;
20294;SDS011;10306;52.128;5.208;2023-07-31T04:46:29;14.77;;;6.80;;
20294;SDS011;10306;52.128;5.208;2023-07-31T04:48:55;12.10;;;6.67;;
20294;SDS011;10306;52.128;5.208;2023-07-31T04:51:21;13.00;;;6.77;;
20294;SDS011;10306;52.128;5.208;2023-07-31T04:53:48;14.57;;;6.57;;
20294;SDS011;10306;52.128;5.208;2023-07-31T04:56:14;14.43;;;6.27;;
20294;SDS011;10306;52.128;5.208;2023-07-31T04:58:40;14.27;;;6.40;;
20294;SDS011;10306;52.128;5.208;2023-07-31T05:01:06;11.30;;;6.53;;
20294;SDS011;10306;52.128;5.208;2023-07-31T05:03:32;11.23;;;5.83;;
20294;SDS011;10306;52.128;5.208;2023-07-31T05:05:58;9.40;;;5.77;;
20294;SDS011;10306;52.128;5.208;2023-07-31T05:08:24;13.67;;;7.00;;
20294;SDS011;10306;52.128;5.208;2023-07-31T05:10:50;9.53;;;6.10;;
20294;SDS011;10306;52.128;5.208;2023-07-31T05:13:16;12.93;;;6.47;;
20294;SDS011;10306;52.128;5.208;2023-07-31T05:15:42;12.17;;;6.80;;
20294;SDS011;10306;52.128;5.208;2023-07-31T05:18:08;17.10;;;6.77;;
20294;SDS011;10306;52.128;5.208;2023-07-31T05:20:34;10.97;;;5.57;;
20294;SDS011;10306;52.128;5.208;2023-07-31T05:23:00;10.87;;;6.37;;
20294;SDS011;10306;52.128;5.208;2023-07-31T05:25:26;10.50;;;5.43;;
20294;SDS011;10306;52.128;5.208;2023-07-31T05:27:52;11.77;;;5.33;;
20294;SDS011;10306;52.128;5.208;2023-07-31T05:30:18;8.33;;;4.17;;
20294;SDS011;10306;52.128;5.208;2023-07-31T05:32:44;6.57;;;4.20;;
20294;SDS011;10306;52.128;5.208;2023-07-31T05:35:10;9.17;;;4.97;;
20294;SDS011;10306;52.128;5.208;2023-07-31T05:37:36;5.90;;;4.27;;
20294;SDS011;10306;52.128;5.208;2023-07-31T05:40:02;6.97;;;4.33;;
20294;SDS011;10306;52.128;5.208;2023-07-31T05:42:28;6.83;;;4.30;;
20294;SDS011;10306;52.128;5.208;2023-07-31T05:44:54;5.97;;;4.27;;
20294;SDS011;10306;52.128;5.208;2023-07-31T05:47:20;6.00;;;4.50;;
20294;SDS011;10306;52.128;5.208;2023-07-31T05:49:46;8.50;;;5.10;;
20294;SDS011;10306;52.128;5.208;2023-07-31T05:52:12;6.13;;;4.53;;
20294;SDS011;10306;52.128;5.208;2023-07-31T05:54:38;6.37;;;4.70;;
20294;SDS011;10306;52.128;5.208;2023-07-31T05:57:04;7.70;;;4.67;;
20294;SDS011;10306;52.128;5.208;2023-07-31T05:59:30;8.27;;;4.93;;
20294;SDS011;10306;52.128;5.208;2023-07-31T06:01:58;9.03;;;4.80;;
20294;SDS011;10306;52.128;5.208;2023-07-31T06:04:24;8.77;;;5.47;;
20294;SDS011;10306;52.128;5.208;2023-07-31T06:06:50;9.40;;;4.87;;
20294;SDS011;10306;52.128;5.208;2023-07-31T06:09:16;9.00;;;5.70;;
20294;SDS011;10306;52.128;5.208;2023-07-31T06:11:42;8.93;;;5.13;;
20294;SDS011;10306;52.128;5.208;2023-07-31T06:14:08;9.40;;;5.47;;
20294;SDS011;10306;52.128;5.208;2023-07-31T06:16:34;7.30;;;4.90;;
20294;SDS011;10306;52.128;5.208;2023-07-31T06:19:01;8.83;;;4.93;;
20294;SDS011;10306;52.128;5.208;2023-07-31T06:21:27;6.43;;;4.37;;
20294;SDS011;10306;52.128;5.208;2023-07-31T06:23:53;6.13;;;4.70;;
20294;SDS011;10306;52.128;5.208;2023-07-31T06:26:19;6.60;;;4.87;;
20294;SDS011;10306;52.128;5.208;2023-07-31T06:28:45;7.60;;;4.90;;
20294;SDS011;10306;52.128;5.208;2023-07-31T06:31:11;6.50;;;5.50;;
20294;SDS011;10306;52.128;5.208;2023-07-31T06:33:37;6.63;;;4.93;;
20294;SDS011;10306;52.128;5.208;2023-07-31T06:36:03;5.73;;;4.17;;
20294;SDS011;10306;52.128;5.208;2023-07-31T06:38:29;8.37;;;4.63;;
20294;SDS011;10306;52.128;5.208;2023-07-31T06:40:55;4.90;;;4.33;;
20294;SDS011;10306;52.128;5.208;2023-07-31T06:43:21;6.23;;;4.80;;
20294;SDS011;10306;52.128;5.208;2023-07-31T06:45:47;5.40;;;4.87;;
20294;SDS011;10306;52.128;5.208;2023-07-31T06:48:16;4.87;;;4.47;;
20294;SDS011;10306;52.128;5.208;2023-07-31T06:50:42;7.37;;;4.60;;
20294;SDS011;10306;52.128;5.208;2023-07-31T06:53:08;10.27;;;4.37;;
20294;SDS011;10306;52.128;5.208;2023-07-31T06:55:34;5.17;;;4.63;;
20294;SDS011;10306;52.128;5.208;2023-07-31T06:58:00;6.03;;;4.23;;
20294;SDS011;10306;52.128;5.208;2023-07-31T07:00:26;7.80;;;4.83;;
20294;SDS011;10306;52.128;5.208;2023-07-31T07:02:52;4.77;;;4.00;;
20294;SDS011;10306;52.128;5.208;2023-07-31T07:05:18;5.90;;;3.83;;
20294;SDS011;10306;52.128;5.208;2023-07-31T07:07:44;6.50;;;4.53;;
20294;SDS011;10306;52.128;5.208;2023-07-31T07:10:10;5.07;;;4.50;;
20294;SDS011;10306;52.128;5.208;2023-07-31T07:12:36;4.43;;;4.03;;
20294;SDS011;10306;52.128;5.208;2023-07-31T07:15:03;4.37;;;3.73;;
20294;SDS011;10306;52.128;5.208;2023-07-31T07:17:29;4.23;;;3.90;;
20294;SDS011;10306;52.128;5.208;2023-07-31T07:19:59;4.53;;;3.50;;
20294;SDS011;10306;52.128;5.208;2023-07-31T07:22:25;5.60;;;3.97;;
20294;SDS011;10306;52.128;5.208;2023-07-31T07:24:52;3.63;;;3.33;;
20294;SDS011;10306;52.128;5.208;2023-07-31T07:27:18;3.40;;;2.93;;
20294;SDS011;10306;52.128;5.208;2023-07-31T07:29:45;4.03;;;3.63;;
20294;SDS011;10306;52.128;5.208;2023-07-31T07:32:12;4.70;;;3.40;;
20294;SDS011;10306;52.128;5.208;2023-07-31T07:34:38;3.20;;;2.93;;
20294;SDS011;10306;52.128;5.208;2023-07-31T07:37:04;4.27;;;3.00;;
20294;SDS011;10306;52.128;5.208;2023-07-31T07:39:30;5.20;;;3.27;;
20294;SDS011;10306;52.128;5.208;2023-07-31T07:41:56;3.53;;;3.23;;
20294;SDS011;10306;52.128;5.208;2023-07-31T07:44:22;2.67;;;2.50;;
20294;SDS011;10306;52.128;5.208;2023-07-31T07:46:48;3.90;;;2.93;;
20294;SDS011;10306;52.128;5.208;2023-07-31T07:49:14;2.73;;;2.53;;
20294;SDS011;10306;52.128;5.208;2023-07-31T07:51:40;3.33;;;2.77;;
20294;SDS011;10306;52.128;5.208;2023-07-31T07:54:06;3.47;;;3.17;;
20294;SDS011;10306;52.128;5.208;2023-07-31T07:56:32;2.87;;;2.67;;
20294;SDS011;10306;52.128;5.208;2023-07-31T07:58:58;3.00;;;2.80;;
20294;SDS011;10306;52.128;5.208;2023-07-31T08:01:26;3.93;;;2.97;;
20294;SDS011;10306;52.128;5.208;2023-07-31T08:03:52;2.83;;;2.33;;
20294;SDS011;10306;52.128;5.208;2023-07-31T08:06:18;2.40;;;2.23;;
20294;SDS011;10306;52.128;5.208;2023-07-31T08:08:44;2.23;;;2.13;;
20294;SDS011;10306;52.128;5.208;2023-07-31T08:11:10;2.27;;;2.17;;
20294;SDS011;10306;52.128;5.208;2023-07-31T08:13:36;2.40;;;2.30;;
20294;SDS011;10306;52.128;5.208;2023-07-31T08:16:03;3.80;;;2.03;;
20294;SDS011;10306;52.128;5.208;2023-07-31T08:18:30;3.17;;;2.33;;
20294;SDS011;10306;52.128;5.208;2023-07-31T08:20:57;2.37;;;2.17;;
20294;SDS011;10306;52.128;5.208;2023-07-31T08:23:23;2.30;;;2.20;;
20294;SDS011;10306;52.128;5.208;2023-07-31T08:25:49;1.90;;;1.80;;
20294;SDS011;10306;52.128;5.208;2023-07-31T08:28:15;2.87;;;2.27;;
20294;SDS011;10306;52.128;5.208;2023-07-31T08:30:42;2.87;;;2.17;;
20294;SDS011;10306;52.128;5.208;2023-07-31T08:33:08;2.00;;;1.90;;
20294;SDS011;10306;52.128;5.208;2023-07-31T08:35:34;2.03;;;1.93;;
20294;SDS011;10306;52.128;5.208;2023-07-31T08:38:00;1.90;;;1.80;;
20294;SDS011;10306;52.128;5.208;2023-07-31T08:40:26;2.20;;;1.97;;
20294;SDS011;10306;52.128;5.208;2023-07-31T08:42:53;2.00;;;1.90;;
20294;SDS011;10306;52.128;5.208;2023-07-31T08:45:21;1.70;;;1.60;;
20294;SDS011;10306;52.128;5.208;2023-07-31T08:47:48;2.10;;;2.00;;
20294;SDS011;10306;52.128;5.208;2023-07-31T08:50:14;2.10;;;1.90;;
20294;SDS011;10306;52.128;5.208;2023-07-31T08:52:41;1.90;;;1.80;;
20294;SDS011;10306;52.128;5.208;2023-07-31T08:55:07;1.80;;;1.70;;
20294;SDS011;10306;52.128;5.208;2023-07-31T08:57:36;2.07;;;1.90;;
20294;SDS011;10306;52.128;5.208;2023-07-31T09:00:06;2.00;;;1.90;;
20294;SDS011;10306;52.128;5.208;2023-07-31T09:02:46;1.90;;;1.80;;
20294;SDS011;10306;52.128;5.208;2023-07-31T09:05:12;2.33;;;2.23;;
20294;SDS011;10306;52.128;5.208;2023-07-31T09:07:38;2.07;;;1.97;;
20294;SDS011;10306;52.128;5.208;2023-07-31T09:10:05;2.20;;;2.10;;
20294;SDS011;10306;52.128;5.208;2023-07-31T09:12:31;2.03;;;1.93;;
20294;SDS011;10306;52.128;5.208;2023-07-31T09:14:58;2.40;;;2.30;;
20294;SDS011;10306;52.128;5.208;2023-07-31T09:17:33;2.20;;;2.10;;
20294;SDS011;10306;52.128;5.208;2023-07-31T09:20:21;2.63;;;2.43;;
20294;SDS011;10306;52.128;5.208;2023-07-31T09:22:46;2.60;;;1.90;;
20294;SDS011;10306;52.128;5.208;2023-07-31T09:25:19;2.10;;;2.00;;
20294;SDS011;10306;52.128;5.208;2023-07-31T09:27:54;2.30;;;2.20;;
20294;SDS011;10306;52.128;5.208;2023-07-31T09:30:21;2.23;;;2.10;;
20294;SDS011;10306;52.128;5.208;2023-07-31T09:32:48;2.60;;;2.40;;
20294;SDS011;10306;52.128;5.208;2023-07-31T09:35:20;2.50;;;2.40;;
20294;SDS011;10306;52.128;5.208;2023-07-31T09:37:50;2.40;;;2.30;;
20294;SDS011;10306;52.128;5.208;2023-07-31T09:40:26;2.40;;;2.20;;
20294;SDS011;10306;52.128;5.208;2023-07-31T09:42:53;2.60;;;2.50;;
20294;SDS011;10306;52.128;5.208;2023-07-31T09:45:19;2.03;;;2.03;;
20294;SDS011;10306;52.128;5.208;2023-07-31T09:47:46;2.20;;;2.10;;
20294;SDS011;10306;52.128;5.208;2023-07-31T09:50:13;2.47;;;2.37;;
20294;SDS011;10306;52.128;5.208;2023-07-31T09:52:40;1.80;;;1.70;;
20294;SDS011;10306;52.128;5.208;2023-07-31T09:55:06;2.10;;;2.00;;
20294;SDS011;10306;52.128;5.208;2023-07-31T09:57:32;2.10;;;2.00;;
20294;SDS011;10306;52.128;5.208;2023-07-31T09:59:59;1.90;;;1.90;;
20294;SDS011;10306;52.128;5.208;2023-07-31T10:02:25;2.13;;;2.03;;
20294;SDS011;10306;52.128;5.208;2023-07-31T10:04:53;2.10;;;2.00;;
20294;SDS011;10306;52.128;5.208;2023-07-31T10:07:23;2.70;;;2.57;;
20294;SDS011;10306;52.128;5.208;2023-07-31T10:09:51;2.57;;;2.47;;
20294;SDS011;10306;52.128;5.208;2023-07-31T10:12:18;2.70;;;2.60;;
20294;SDS011;10306;52.128;5.208;2023-07-31T10:14:45;3.00;;;2.90;;
20294;SDS011;10306;52.128;5.208;2023-07-31T10:17:11;2.90;;;2.80;;
20294;SDS011;10306;52.128;5.208;2023-07-31T10:19:37;3.60;;;3.30;;
20294;SDS011;10306;52.128;5.208;2023-07-31T10:22:03;3.13;;;2.93;;
20294;SDS011;10306;52.128;5.208;2023-07-31T10:24:30;4.57;;;3.73;;
20294;SDS011;10306;52.128;5.208;2023-07-31T10:26:57;3.73;;;3.43;;
20294;SDS011;10306;52.128;5.208;2023-07-31T10:29:23;4.23;;;4.03;;
20294;SDS011;10306;52.128;5.208;2023-07-31T10:31:50;4.43;;;4.23;;
20294;SDS011;10306;52.128;5.208;2023-07-31T10:34:16;4.93;;;4.03;;
20294;SDS011;10306;52.128;5.208;2023-07-31T10:36:42;5.03;;;4.70;;
20294;SDS011;10306;52.128;5.208;2023-07-31T10:41:53;4.73;;;4.40;;
20294;SDS011;10306;52.128;5.208;2023-07-31T10:44:19;4.43;;;4.13;;
20294;SDS011;10306;52.128;5.208;2023-07-31T10:46:45;4.67;;;4.27;;
20294;SDS011;10306;52.128;5.208;2023-07-31T10:49:12;4.63;;;4.43;;
20294;SDS011;10306;52.128;5.208;2023-07-31T10:51:47;5.10;;;4.70;;
20294;SDS011;10306;52.128;5.208;2023-07-31T10:54:13;4.97;;;4.67;;
20294;SDS011;10306;52.128;5.208;2023-07-31T10:56:40;4.30;;;4.10;;
20294;SDS011;10306;52.128;5.208;2023-07-31T10:59:10;4.97;;;4.57;;
20294;SDS011;10306;52.128;5.208;2023-07-31T11:01:50;4.60;;;4.30;;
20294;SDS011;10306;52.128;5.208;2023-07-31T11:04:21;4.50;;;4.30;;
20294;SDS011;10306;52.128;5.208;2023-07-31T11:07:01;4.50;;;4.30;;
20294;SDS011;10306;52.128;5.208;2023-07-31T11:09:30;4.07;;;3.70;;
20294;SDS011;10306;52.128;5.208;2023-07-31T11:11:57;4.13;;;3.20;;
20294;SDS011;10306;52.128;5.208;2023-07-31T11:14:23;3.30;;;3.10;;
20294;SDS011;10306;52.128;5.208;2023-07-31T11:16:49;2.90;;;2.70;;
20294;SDS011;10306;52.128;5.208;2023-07-31T11:19:23;2.80;;;2.60;;
20294;SDS011;10306;52.128;5.208;2023-07-31T11:21:49;3.17;;;3.03;;
20294;SDS011;10306;52.128;5.208;2023-07-31T11:24:16;3.50;;;3.20;;
20294;SDS011;10306;52.128;5.208;2023-07-31T11:27:00;3.10;;;2.90;;
20294;SDS011;10306;52.128;5.208;2023-07-31T11:29:31;3.30;;;3.10;;
20294;SDS011;10306;52.128;5.208;2023-07-31T11:31:57;3.80;;;2.60;;
20294;SDS011;10306;52.128;5.208;2023-07-31T11:34:22;5.17;;;2.60;;
20294;SDS011;10306;52.128;5.208;2023-07-31T11:36:55;2.93;;;2.73;;
20294;SDS011;10306;52.128;5.208;2023-07-31T11:39:21;2.87;;;2.67;;
20294;SDS011;10306;52.128;5.208;2023-07-31T11:41:47;3.27;;;3.00;;
20294;SDS011;10306;52.128;5.208;2023-07-31T11:44:13;3.80;;;3.23;;
20294;SDS011;10306;52.128;5.208;2023-07-31T11:46:39;4.83;;;3.00;;
20294;SDS011;10306;52.128;5.208;2023-07-31T11:49:04;6.20;;;3.90;;
20294;SDS011;10306;52.128;5.208;2023-07-31T11:51:31;4.10;;;3.87;;
20294;SDS011;10306;52.128;5.208;2023-07-31T11:53:57;4.33;;;4.00;;
20294;SDS011;10306;52.128;5.208;2023-07-31T11:56:24;4.67;;;4.27;;
20294;SDS011;10306;52.128;5.208;2023-07-31T11:58:55;5.77;;;5.33;;
20294;SDS011;10306;52.128;5.208;2023-07-31T12:01:22;5.97;;;5.57;;
20294;SDS011;10306;52.128;5.208;2023-07-31T12:03:49;5.83;;;5.40;;
20294;SDS011;10306;52.128;5.208;2023-07-31T12:06:15;5.33;;;4.90;;
20294;SDS011;10306;52.128;5.208;2023-07-31T12:08:41;5.63;;;5.13;;
20294;SDS011;10306;52.128;5.208;2023-07-31T12:11:08;5.17;;;4.77;;
20294;SDS011;10306;52.128;5.208;2023-07-31T12:13:35;5.10;;;4.80;;
20294;SDS011;10306;52.128;5.208;2023-07-31T12:16:01;4.67;;;4.47;;
20294;SDS011;10306;52.128;5.208;2023-07-31T12:18:30;4.77;;;4.43;;
20294;SDS011;10306;52.128;5.208;2023-07-31T12:21:00;4.53;;;4.33;;
20294;SDS011;10306;52.128;5.208;2023-07-31T12:23:26;4.60;;;4.23;;
20294;SDS011;10306;52.128;5.208;2023-07-31T12:31:09;5.10;;;4.80;;
20294;SDS011;10306;52.128;5.208;2023-07-31T12:33:36;4.30;;;4.00;;
20294;SDS011;10306;52.128;5.208;2023-07-31T12:36:09;4.60;;;4.20;;
20294;SDS011;10306;52.128;5.208;2023-07-31T12:38:35;4.17;;;3.87;;
20294;SDS011;10306;52.128;5.208;2023-07-31T12:41:01;4.77;;;4.50;;
20294;SDS011;10306;52.128;5.208;2023-07-31T12:43:27;5.00;;;4.70;;
20294;SDS011;10306;52.128;5.208;2023-07-31T12:45:56;4.80;;;4.50;;
20294;SDS011;10306;52.128;5.208;2023-07-31T12:48:22;4.47;;;4.17;;
20294;SDS011;10306;52.128;5.208;2023-07-31T12:50:48;4.73;;;4.43;;
20294;SDS011;10306;52.128;5.208;2023-07-31T12:53:17;4.03;;;3.80;;
20294;SDS011;10306;52.128;5.208;2023-07-31T12:55:43;4.90;;;4.60;;
20294;SDS011;10306;52.128;5.208;2023-07-31T12:58:09;5.10;;;4.70;;
20294;SDS011;10306;52.128;5.208;2023-07-31T13:00:35;5.00;;;4.70;;
20294;SDS011;10306;52.128;5.208;2023-07-31T13:03:01;5.53;;;5.13;;
20294;SDS011;10306;52.128;5.208;2023-07-31T13:05:28;4.87;;;4.50;;
20294;SDS011;10306;52.128;5.208;2023-07-31T13:07:54;4.40;;;4.20;;
20294;SDS011;10306;52.128;5.208;2023-07-31T13:10:20;4.40;;;4.20;;
20294;SDS011;10306;52.128;5.208;2023-07-31T13:12:46;4.00;;;3.80;;
20294;SDS011;10306;52.128;5.208;2023-07-31T13:15:12;3.67;;;3.57;;
20294;SDS011;10306;52.128;5.208;2023-07-31T13:17:38;4.70;;;4.50;;
20294;SDS011;10306;52.128;5.208;2023-07-31T13:20:04;4.10;;;3.90;;
20294;SDS011;10306;52.128;5.208;2023-07-31T13:22:30;4.00;;;3.70;;
20294;SDS011;10306;52.128;5.208;2023-07-31T13:24:56;3.60;;;3.40;;
20294;SDS011;10306;52.128;5.208;2023-07-31T13:27:22;3.53;;;3.33;;
20294;SDS011;10306;52.128;5.208;2023-07-31T13:29:49;3.20;;;3.10;;
20294;SDS011;10306;52.128;5.208;2023-07-31T13:32:16;4.83;;;3.27;;
20294;SDS011;10306;52.128;5.208;2023-07-31T13:34:42;3.17;;;3.07;;
20294;SDS011;10306;52.128;5.208;2023-07-31T13:37:08;2.90;;;2.80;;
20294;SDS011;10306;52.128;5.208;2023-07-31T13:39:34;2.53;;;2.43;;
20294;SDS011;10306;52.128;5.208;2023-07-31T13:42:01;2.50;;;2.40;;
20294;SDS011;10306;52.128;5.208;2023-07-31T13:44:27;2.03;;;1.93;;
20294;SDS011;10306;52.128;5.208;2023-07-31T13:46:53;1.73;;;1.67;;
20294;SDS011;10306;52.128;5.208;2023-07-31T13:49:19;1.70;;;1.60;;
20294;SDS011;10306;52.128;5.208;2023-07-31T13:51:45;1.00;;;1.00;;
20294;SDS011;10306;52.128;5.208;2023-07-31T13:54:11;1.20;;;1.20;;
20294;SDS011;10306;52.128;5.208;2023-07-31T13:56:38;2.40;;;1.73;;
20294;SDS011;10306;52.128;5.208;2023-07-31T13:59:04;1.63;;;1.57;;
20294;SDS011;10306;52.128;5.208;2023-07-31T14:01:30;1.33;;;1.33;;
20294;SDS011;10306;52.128;5.208;2023-07-31T14:03:56;1.33;;;1.23;;
20294;SDS011;10306;52.128;5.208;2023-07-31T14:06:22;1.27;;;1.27;;
20294;SDS011;10306;52.128;5.208;2023-07-31T14:08:48;1.23;;;1.20;;
20294;SDS011;10306;52.128;5.208;2023-07-31T14:11:14;1.70;;;1.60;;
20294;SDS011;10306;52.128;5.208;2023-07-31T14:13:40;1.60;;;1.60;;
20294;SDS011;10306;52.128;5.208;2023-07-31T14:16:06;1.83;;;1.73;;
20294;SDS011;10306;52.128;5.208;2023-07-31T14:18:32;1.87;;;1.77;;
20294;SDS011;10306;52.128;5.208;2023-07-31T14:20:58;1.73;;;1.63;;
20294;SDS011;10306;52.128;5.208;2023-07-31T14:23:24;2.50;;;2.30;;
20294;SDS011;10306;52.128;5.208;2023-07-31T14:25:50;4.30;;;2.03;;
20294;SDS011;10306;52.128;5.208;2023-07-31T14:28:16;2.43;;;2.33;;
20294;SDS011;10306;52.128;5.208;2023-07-31T14:30:42;2.07;;;1.97;;
20294;SDS011;10306;52.128;5.208;2023-07-31T14:33:08;2.30;;;2.20;;
20294;SDS011;10306;52.128;5.208;2023-07-31T14:35:34;2.50;;;2.40;;
20294;SDS011;10306;52.128;5.208;2023-07-31T14:38:01;2.47;;;2.37;;
20294;SDS011;10306;52.128;5.208;2023-07-31T14:40:27;3.23;;;3.03;;
20294;SDS011;10306;52.128;5.208;2023-07-31T14:42:53;3.70;;;3.50;;
20294;SDS011;10306;52.128;5.208;2023-07-31T14:45:19;3.80;;;3.50;;
20294;SDS011;10306;52.128;5.208;2023-07-31T14:47:44;3.30;;;3.20;;
20294;SDS011;10306;52.128;5.208;2023-07-31T14:50:11;3.27;;;3.07;;
20294;SDS011;10306;52.128;5.208;2023-07-31T14:52:37;2.83;;;2.73;;
20294;SDS011;10306;52.128;5.208;2023-07-31T14:55:04;2.87;;;2.67;;